New Braunfels, TX (78132)

08:00 PM CDT die 03o May, anno 2015 (GMT -0500)
Gruene Crossing | | Change Station
CLOSE
Current Station
Personal Weather Stations
Location: New Braunfels, TX
Elevation: 701 ft
Nearby Weather Stations

Elev 701 ft 29.73 °N, 98.10 °W | Updated 17 seconds ago

Partialiter Nubila
Partialiter Nubila
76.5 °F
Feels Like 76 °F
N
2.7
Ventus Variabilis Ventus from Inter Austrum et Eurum
Gusts 2.7 mph

Hodie
High -- | Low -- °F
--% Chance of Precip.
Yesterday
High -- | Low -- °F
Precip. -- in
6:48 AM 8:10 PM
Full, 100% visible
Pressio 29.92 in
Visibilitas 10.0 milia passuum
Clouds Serena
Index Caloris 76 °F
Frigus in quo Ros apparet 25 °F
Umor 15%
Rainfall 0.00 in
Snow Depth Not available.
UV 0 out of 12
Pollen 6.70 out of 12
Air Quality Not available.
Flu Activity Sporadic
METAR KBAZ 040051Z AUTO 14013G20KT 10SM CLR 25/17 A2994 RMK AO2 SLP132 T02500172

More Conditions Fewer Conditions

Pressio 29.92 in
Visibilitas 10.0 milia passuum
Clouds Serena
Index Caloris 76 °F
Frigus in quo Ros apparet 25 °F
Umor 15%
Rainfall 0.00 in
Snow Depth Not available.
UV 0 out of 12
Pollen 6.70 out of 12
Air Quality Not available.
Flu Activity Sporadic
METAR KBAZ 040051Z AUTO 14013G20KT 10SM CLR 25/17 A2994 RMK AO2 SLP132 T02500172

More Conditions Fewer Conditions

Nepal has a long way to go to dig out and rebuild from a devastating earthquake. We have teamed up with several charities and organizations to make contributing to the relief effort as easy as possible.
How you can help: Portlight Strategies | Red Cross

10-Day Weather Forecast

Almanac

Astronomy

May. 03, 2015 Rise Set
Actual Time
Civil Twilight
Nautical Twilight
Astronomical Twilight
Moon
Length Of Visible Light
Length of Day
Tomorrow will be .
, % of the Moon is Illuminated

Today's Extremes

State Highs State Lows

Community

WunderPhotos

Upload Photos

1,818,446 photos uploaded!

WunderBlogs® & News

Nearby

Air Quality

  Air Quality AQ Index Pollutant
Not available.

Snow Depth

Station Depth Elevation

Earthquake Activity

City Distance Mag. Time & Date
Minimum magnitude displayed is 2.5.

Coastal Water Temperatures

Locus Calor

Stations

Nearby Weather Stations

Station Location Temp Frigus Venti Frigus in quo Ros apparet Umor Ventus Precip. Elev Renovata Type